sensor_id;sensor_type;location;lat;lon;timestamp;pressure;altitude;pressure_sealevel;temperature;humidity
50592;BME280;36548;50.506;30.834;2023-04-05T00:01:06;99891.82;;;6.12;75.32
50592;BME280;36548;50.506;30.834;2023-04-05T00:02:15;99901.30;;;6.01;75.87
50592;BME280;36548;50.506;30.834;2023-04-05T00:03:26;99897.37;;;6.08;75.70
50592;BME280;36548;50.506;30.834;2023-04-05T00:04:37;99894.87;;;6.22;75.61
50592;BME280;36548;50.506;30.834;2023-04-05T00:05:49;99888.81;;;6.36;75.85
50592;BME280;36548;50.506;30.834;2023-04-05T00:07:04;99892.58;;;6.32;75.28
50592;BME280;36548;50.506;30.834;2023-04-05T00:08:15;99892.42;;;6.18;75.35
50592;BME280;36548;50.506;30.834;2023-04-05T00:09:48;99886.41;;;6.14;75.73
50592;BME280;36548;50.506;30.834;2023-04-05T00:10:58;99887.97;;;6.18;75.79
50592;BME280;36548;50.506;30.834;2023-04-05T00:12:08;99884.58;;;6.32;75.87
50592;BME280;36548;50.506;30.834;2023-04-05T00:13:17;99876.33;;;6.37;75.41
50592;BME280;36548;50.506;30.834;2023-04-05T00:14:27;99884.33;;;6.37;75.07
50592;BME280;36548;50.506;30.834;2023-04-05T00:15:37;99885.31;;;6.18;75.10
50592;BME280;36548;50.506;30.834;2023-04-05T00:16:46;99877.95;;;6.23;74.99
50592;BME280;36548;50.506;30.834;2023-04-05T00:18:01;99879.05;;;6.19;74.95
50592;BME280;36548;50.506;30.834;2023-04-05T00:19:11;99884.89;;;6.26;75.59
50592;BME280;36548;50.506;30.834;2023-04-05T00:20:21;99884.04;;;6.25;75.02
50592;BME280;36548;50.506;30.834;2023-04-05T00:21:31;99882.09;;;6.29;75.18
50592;BME280;36548;50.506;30.834;2023-04-05T00:22:46;99886.87;;;6.22;75.03
50592;BME280;36548;50.506;30.834;2023-04-05T00:23:58;99888.61;;;6.06;75.67
50592;BME280;36548;50.506;30.834;2023-04-05T00:25:14;99876.33;;;6.37;76.01
50592;BME280;36548;50.506;30.834;2023-04-05T00:26:23;99875.41;;;6.20;75.19
50592;BME280;36548;50.506;30.834;2023-04-05T00:27:35;99874.95;;;5.94;75.34
50592;BME280;36548;50.506;30.834;2023-04-05T00:28:46;99870.42;;;6.14;75.99
50592;BME280;36548;50.506;30.834;2023-04-05T00:30:04;99863.88;;;6.37;75.42
50592;BME280;36548;50.506;30.834;2023-04-05T00:31:14;99872.92;;;6.17;75.28
50592;BME280;36548;50.506;30.834;2023-04-05T00:32:23;99878.25;;;6.17;75.60
50592;BME280;36548;50.506;30.834;2023-04-05T00:33:39;99868.39;;;6.19;75.03
50592;BME280;36548;50.506;30.834;2023-04-05T00:34:48;99874.56;;;6.20;75.16
50592;BME280;36548;50.506;30.834;2023-04-05T00:36:13;99870.55;;;6.28;75.38
50592;BME280;36548;50.506;30.834;2023-04-05T00:37:23;99872.81;;;6.36;74.99
50592;BME280;36548;50.506;30.834;2023-04-05T00:38:33;99873.72;;;6.19;74.78
50592;BME280;36548;50.506;30.834;2023-04-05T00:39:42;99868.42;;;6.35;75.00
50592;BME280;36548;50.506;30.834;2023-04-05T00:40:57;99865.19;;;6.46;74.67
50592;BME280;36548;50.506;30.834;2023-04-05T00:42:06;99872.39;;;6.44;74.69
50592;BME280;36548;50.506;30.834;2023-04-05T00:43:22;99867.36;;;6.55;74.35
50592;BME280;36548;50.506;30.834;2023-04-05T00:44:32;99867.05;;;6.44;74.36
50592;BME280;36548;50.506;30.834;2023-04-05T00:45:51;99859.68;;;6.49;74.21
50592;BME280;36548;50.506;30.834;2023-04-05T00:47:02;99868.47;;;6.51;74.62
50592;BME280;36548;50.506;30.834;2023-04-05T00:48:19;99868.66;;;6.64;74.30
50592;BME280;36548;50.506;30.834;2023-04-05T00:49:31;99860.48;;;6.51;73.83
50592;BME280;36548;50.506;30.834;2023-04-05T00:50:48;99862.80;;;6.57;73.37
50592;BME280;36548;50.506;30.834;2023-04-05T00:51:59;99866.97;;;6.45;73.80
50592;BME280;36548;50.506;30.834;2023-04-05T00:53:09;99862.38;;;6.31;73.84
50592;BME280;36548;50.506;30.834;2023-04-05T00:54:19;99862.91;;;6.38;74.31
50592;BME280;36548;50.506;30.834;2023-04-05T00:55:29;99859.12;;;6.26;74.06
50592;BME280;36548;50.506;30.834;2023-04-05T00:56:46;99849.75;;;6.35;74.06
50592;BME280;36548;50.506;30.834;2023-04-05T00:57:55;99856.08;;;6.17;73.96
50592;BME280;36548;50.506;30.834;2023-04-05T00:59:11;99847.66;;;6.24;74.62
50592;BME280;36548;50.506;30.834;2023-04-05T01:00:20;99854.72;;;6.25;74.69
50592;BME280;36548;50.506;30.834;2023-04-05T01:01:31;99854.27;;;6.17;74.60
50592;BME280;36548;50.506;30.834;2023-04-05T01:02:54;99848.93;;;6.17;74.84
50592;BME280;36548;50.506;30.834;2023-04-05T01:04:04;99841.73;;;6.19;74.56
50592;BME280;36548;50.506;30.834;2023-04-05T01:08:18;99842.84;;;5.97;74.85
50592;BME280;36548;50.506;30.834;2023-04-05T01:10:54;99839.69;;;5.89;75.65
50592;BME280;36548;50.506;30.834;2023-04-05T01:12:08;99844.77;;;5.59;76.21
50592;BME280;36548;50.506;30.834;2023-04-05T01:13:25;99839.84;;;6.04;75.94
50592;BME280;36548;50.506;30.834;2023-04-05T01:14:48;99836.17;;;5.89;76.33
50592;BME280;36548;50.506;30.834;2023-04-05T01:15:58;99829.44;;;5.64;76.54
50592;BME280;36548;50.506;30.834;2023-04-05T01:17:07;99819.55;;;5.84;76.47
50592;BME280;36548;50.506;30.834;2023-04-05T01:18:25;99821.12;;;5.70;76.71
50592;BME280;36548;50.506;30.834;2023-04-05T01:19:35;99820.82;;;5.76;76.27
50592;BME280;36548;50.506;30.834;2023-04-05T01:21:06;99824.09;;;5.81;76.15
50592;BME280;36548;50.506;30.834;2023-04-05T01:24:03;99831.47;;;5.76;75.55
50592;BME280;36548;50.506;30.834;2023-04-05T01:27:09;99820.48;;;5.83;76.01
50592;BME280;36548;50.506;30.834;2023-04-05T01:28:40;99821.20;;;6.04;76.03
50592;BME280;36548;50.506;30.834;2023-04-05T01:29:56;99826.52;;;5.69;75.88
50592;BME280;36548;50.506;30.834;2023-04-05T01:31:29;99823.53;;;5.92;76.44
50592;BME280;36548;50.506;30.834;2023-04-05T01:35:31;99826.27;;;5.38;77.82
50592;BME280;36548;50.506;30.834;2023-04-05T01:36:41;99825.18;;;5.25;78.00
50592;BME280;36548;50.506;30.834;2023-04-05T01:37:59;99828.64;;;5.44;77.97
50592;BME280;36548;50.506;30.834;2023-04-05T01:39:12;99826.11;;;5.24;78.86
50592;BME280;36548;50.506;30.834;2023-04-05T01:40:22;99832.40;;;5.40;78.69
50592;BME280;36548;50.506;30.834;2023-04-05T01:41:39;99823.09;;;5.67;78.59
50592;BME280;36548;50.506;30.834;2023-04-05T01:42:48;99831.16;;;5.65;77.76
50592;BME280;36548;50.506;30.834;2023-04-05T01:43:57;99825.84;;;5.65;77.59
50592;BME280;36548;50.506;30.834;2023-04-05T01:45:14;99819.16;;;5.56;77.46
50592;BME280;36548;50.506;30.834;2023-04-05T01:46:24;99808.65;;;5.36;78.38
50592;BME280;36548;50.506;30.834;2023-04-05T01:47:35;99811.25;;;5.55;78.29
50592;BME280;36548;50.506;30.834;2023-04-05T01:48:44;99815.94;;;5.50;77.88
50592;BME280;36548;50.506;30.834;2023-04-05T01:50:00;99812.74;;;5.60;78.21
50592;BME280;36548;50.506;30.834;2023-04-05T01:51:09;99815.02;;;5.51;78.11
50592;BME280;36548;50.506;30.834;2023-04-05T01:52:25;99814.72;;;5.57;78.48
50592;BME280;36548;50.506;30.834;2023-04-05T01:53:34;99811.66;;;5.47;78.41
50592;BME280;36548;50.506;30.834;2023-04-05T01:54:51;99815.50;;;5.41;78.29
50592;BME280;36548;50.506;30.834;2023-04-05T01:56:00;99808.89;;;5.31;78.84
50592;BME280;36548;50.506;30.834;2023-04-05T01:57:16;99816.11;;;5.46;78.44
50592;BME280;36548;50.506;30.834;2023-04-05T01:58:26;99808.20;;;5.45;78.30
50592;BME280;36548;50.506;30.834;2023-04-05T01:59:35;99799.45;;;5.43;78.70
50592;BME280;36548;50.506;30.834;2023-04-05T02:00:44;99805.63;;;5.61;78.35
50592;BME280;36548;50.506;30.834;2023-04-05T02:01:55;99810.72;;;5.66;77.88
50592;BME280;36548;50.506;30.834;2023-04-05T02:03:10;99806.40;;;5.63;77.87
50592;BME280;36548;50.506;30.834;2023-04-05T02:04:19;99819.30;;;5.88;78.34
50592;BME280;36548;50.506;30.834;2023-04-05T02:05:28;99816.67;;;5.71;77.79
50592;BME280;36548;50.506;30.834;2023-04-05T02:06:43;99802.42;;;5.54;78.03
50592;BME280;36548;50.506;30.834;2023-04-05T02:07:53;99795.19;;;5.21;79.29
50592;BME280;36548;50.506;30.834;2023-04-05T02:09:02;99797.36;;;5.13;79.37
50592;BME280;36548;50.506;30.834;2023-04-05T02:10:13;99786.11;;;5.25;79.58
50592;BME280;36548;50.506;30.834;2023-04-05T02:11:23;99792.14;;;5.46;79.15
50592;BME280;36548;50.506;30.834;2023-04-05T02:12:39;99786.51;;;5.35;79.19
50592;BME280;36548;50.506;30.834;2023-04-05T02:13:48;99787.68;;;5.29;79.49
50592;BME280;36548;50.506;30.834;2023-04-05T02:15:05;99789.33;;;5.32;80.16
50592;BME280;36548;50.506;30.834;2023-04-05T02:16:15;99792.08;;;5.31;79.63
50592;BME280;36548;50.506;30.834;2023-04-05T02:17:25;99794.53;;;4.99;79.97
50592;BME280;36548;50.506;30.834;2023-04-05T02:18:44;99783.45;;;5.25;80.52
50592;BME280;36548;50.506;30.834;2023-04-05T02:19:54;99797.55;;;4.91;80.63
50592;BME280;36548;50.506;30.834;2023-04-05T02:21:12;99794.30;;;5.03;80.74
50592;BME280;36548;50.506;30.834;2023-04-05T02:22:23;99793.88;;;4.93;81.18
50592;BME280;36548;50.506;30.834;2023-04-05T02:23:33;99795.97;;;4.87;81.31
50592;BME280;36548;50.506;30.834;2023-04-05T02:24:50;99795.02;;;5.07;81.01
50592;BME280;36548;50.506;30.834;2023-04-05T02:25:59;99786.73;;;4.76;81.55
50592;BME280;36548;50.506;30.834;2023-04-05T02:27:11;99781.17;;;4.81;82.21
50592;BME280;36548;50.506;30.834;2023-04-05T02:28:26;99769.09;;;4.93;81.88
50592;BME280;36548;50.506;30.834;2023-04-05T02:29:36;99774.79;;;4.66;82.57
50592;BME280;36548;50.506;30.834;2023-04-05T02:30:52;99767.25;;;5.12;82.02
50592;BME280;36548;50.506;30.834;2023-04-05T02:32:02;99778.17;;;5.06;80.74
50592;BME280;36548;50.506;30.834;2023-04-05T02:33:13;99771.23;;;5.21;80.59
50592;BME280;36548;50.506;30.834;2023-04-05T02:34:22;99782.73;;;5.22;79.98
50592;BME280;36548;50.506;30.834;2023-04-05T02:35:32;99775.52;;;5.06;81.09
50592;BME280;36548;50.506;30.834;2023-04-05T02:36:41;99771.44;;;4.99;81.14
50592;BME280;36548;50.506;30.834;2023-04-05T02:37:51;99777.89;;;5.12;80.61
50592;BME280;36548;50.506;30.834;2023-04-05T02:39:25;99764.42;;;5.16;81.05
50592;BME280;36548;50.506;30.834;2023-04-05T02:40:36;99770.59;;;5.16;80.57
50592;BME280;36548;50.506;30.834;2023-04-05T02:41:54;99768.58;;;5.21;80.27
50592;BME280;36548;50.506;30.834;2023-04-05T02:43:03;99763.88;;;5.44;80.43
50592;BME280;36548;50.506;30.834;2023-04-05T02:44:19;99767.03;;;5.35;80.07
50592;BME280;36548;50.506;30.834;2023-04-05T02:45:27;99771.55;;;5.15;80.06
50592;BME280;36548;50.506;30.834;2023-04-05T02:46:43;99763.70;;;5.12;80.36
50592;BME280;36548;50.506;30.834;2023-04-05T02:47:53;99761.84;;;5.32;80.30
50592;BME280;36548;50.506;30.834;2023-04-05T02:49:06;99767.09;;;5.51;80.05
50592;BME280;36548;50.506;30.834;2023-04-05T02:50:21;99777.41;;;5.22;80.20
50592;BME280;36548;50.506;30.834;2023-04-05T02:51:31;99761.40;;;4.87;81.42
50592;BME280;36548;50.506;30.834;2023-04-05T02:52:49;99739.39;;;5.20;80.99
50592;BME280;36548;50.506;30.834;2023-04-05T02:54:03;99750.03;;;5.20;80.29
50592;BME280;36548;50.506;30.834;2023-04-05T02:55:18;99722.33;;;5.24;80.15
50592;BME280;36548;50.506;30.834;2023-04-05T02:56:27;99734.99;;;5.19;80.51
50592;BME280;36548;50.506;30.834;2023-04-05T02:57:45;99730.00;;;5.12;81.05
50592;BME280;36548;50.506;30.834;2023-04-05T02:58:59;99735.88;;;5.19;80.61
50592;BME280;36548;50.506;30.834;2023-04-05T03:00:10;99746.65;;;5.16;79.98
50592;BME280;36548;50.506;30.834;2023-04-05T03:01:27;99737.58;;;5.20;80.54
50592;BME280;36548;50.506;30.834;2023-04-05T03:02:35;99741.27;;;5.53;80.59
50592;BME280;36548;50.506;30.834;2023-04-05T03:03:52;99743.67;;;5.40;79.91
50592;BME280;36548;50.506;30.834;2023-04-05T03:05:01;99755.11;;;5.07;80.51
50592;BME280;36548;50.506;30.834;2023-04-05T03:06:13;99762.96;;;5.27;80.24
50592;BME280;36548;50.506;30.834;2023-04-05T03:07:29;99751.52;;;5.25;80.50
50592;BME280;36548;50.506;30.834;2023-04-05T03:08:41;99749.33;;;5.34;80.21
50592;BME280;36548;50.506;30.834;2023-04-05T03:10:03;99748.16;;;5.39;80.27
50592;BME280;36548;50.506;30.834;2023-04-05T03:11:14;99745.88;;;5.49;80.09
50592;BME280;36548;50.506;30.834;2023-04-05T03:12:30;99741.56;;;5.46;79.53
50592;BME280;36548;50.506;30.834;2023-04-05T03:13:40;99742.75;;;5.58;79.77
50592;BME280;36548;50.506;30.834;2023-04-05T03:14:56;99754.07;;;5.79;78.63
50592;BME280;36548;50.506;30.834;2023-04-05T03:16:06;99736.11;;;5.32;79.60
50592;BME280;36548;50.506;30.834;2023-04-05T03:17:19;99738.30;;;5.41;79.04
50592;BME280;36548;50.506;30.834;2023-04-05T03:18:36;99732.18;;;5.57;79.68
50592;BME280;36548;50.506;30.834;2023-04-05T03:19:48;99738.36;;;5.57;79.09
50592;BME280;36548;50.506;30.834;2023-04-05T03:20:59;99736.16;;;5.66;79.08
50592;BME280;36548;50.506;30.834;2023-04-05T03:22:14;99729.70;;;5.87;78.68
50592;BME280;36548;50.506;30.834;2023-04-05T03:23:28;99740.13;;;5.74;78.11
50592;BME280;36548;50.506;30.834;2023-04-05T03:24:44;99728.91;;;5.85;77.89
50592;BME280;36548;50.506;30.834;2023-04-05T03:25:59;99741.02;;;5.57;78.21
50592;BME280;36548;50.506;30.834;2023-04-05T03:27:15;99737.55;;;5.73;78.13
50592;BME280;36548;50.506;30.834;2023-04-05T03:28:41;99741.23;;;5.70;78.85
50592;BME280;36548;50.506;30.834;2023-04-05T03:29:54;99734.59;;;5.61;78.28
50592;BME280;36548;50.506;30.834;2023-04-05T03:31:12;99734.59;;;5.61;78.37
50592;BME280;36548;50.506;30.834;2023-04-05T03:32:22;99737.34;;;5.60;79.03
50592;BME280;36548;50.506;30.834;2023-04-05T03:33:37;99740.19;;;5.90;78.66
50592;BME280;36548;50.506;30.834;2023-04-05T03:34:51;99745.82;;;5.84;78.24
50592;BME280;36548;50.506;30.834;2023-04-05T03:36:07;99742.62;;;5.77;78.24
50592;BME280;36548;50.506;30.834;2023-04-05T03:37:18;99750.18;;;5.69;78.08
50592;BME280;36548;50.506;30.834;2023-04-05T03:38:35;99744.98;;;6.01;78.12
50592;BME280;36548;50.506;30.834;2023-04-05T03:39:47;99747.18;;;5.75;77.64
50592;BME280;36548;50.506;30.834;2023-04-05T03:41:03;99743.39;;;5.97;78.29
50592;BME280;36548;50.506;30.834;2023-04-05T03:42:12;99745.37;;;5.76;77.82
50592;BME280;36548;50.506;30.834;2023-04-05T03:43:30;99736.28;;;5.97;77.80
50592;BME280;36548;50.506;30.834;2023-04-05T03:44:40;99741.13;;;5.89;77.37
50592;BME280;36548;50.506;30.834;2023-04-05T03:45:56;99734.37;;;6.00;77.45
50592;BME280;36548;50.506;30.834;2023-04-05T03:47:08;99746.28;;;5.92;77.48
50592;BME280;36548;50.506;30.834;2023-04-05T03:48:25;99735.79;;;6.07;77.44
50592;BME280;36548;50.506;30.834;2023-04-05T03:49:35;99745.43;;;5.92;77.27
50592;BME280;36548;50.506;30.834;2023-04-05T03:50:50;99736.38;;;6.12;77.28
50592;BME280;36548;50.506;30.834;2023-04-05T03:52:01;99749.03;;;6.08;77.25
50592;BME280;36548;50.506;30.834;2023-04-05T03:53:11;99744.41;;;6.28;77.75
50592;BME280;36548;50.506;30.834;2023-04-05T03:54:27;99742.45;;;6.47;76.75
50592;BME280;36548;50.506;30.834;2023-04-05T03:55:38;99751.30;;;6.48;77.05
50592;BME280;36548;50.506;30.834;2023-04-05T03:56:48;99756.63;;;6.48;76.02
50592;BME280;36548;50.506;30.834;2023-04-05T03:58:04;99748.39;;;6.53;75.47
50592;BME280;36548;50.506;30.834;2023-04-05T03:59:15;99749.83;;;6.42;75.07
50592;BME280;36548;50.506;30.834;2023-04-05T04:00:31;99748.55;;;6.65;75.50
50592;BME280;36548;50.506;30.834;2023-04-05T04:01:52;99752.95;;;6.67;75.90
50592;BME280;36548;50.506;30.834;2023-04-05T04:03:04;99755.25;;;6.73;75.26
50592;BME280;36548;50.506;30.834;2023-04-05T04:04:15;99753.11;;;6.79;75.02
50592;BME280;36548;50.506;30.834;2023-04-05T04:05:26;99758.17;;;6.84;74.78
50592;BME280;36548;50.506;30.834;2023-04-05T04:06:41;99742.49;;;6.94;73.93
50592;BME280;36548;50.506;30.834;2023-04-05T04:07:51;99754.74;;;6.82;73.88
50592;BME280;36548;50.506;30.834;2023-04-05T04:09:00;99754.84;;;6.48;73.89
50592;BME280;36548;50.506;30.834;2023-04-05T04:10:16;99749.50;;;6.80;74.73
50592;BME280;36548;50.506;30.834;2023-04-05T04:11:27;99762.98;;;6.77;74.53
50592;BME280;36548;50.506;30.834;2023-04-05T04:12:43;99750.34;;;6.97;74.60
50592;BME280;36548;50.506;30.834;2023-04-05T04:13:53;99752.41;;;6.92;74.75
50592;BME280;36548;50.506;30.834;2023-04-05T04:15:09;99755.31;;;7.03;73.84
50592;BME280;36548;50.506;30.834;2023-04-05T04:17:08;99759.56;;;6.91;73.41
50592;BME280;36548;50.506;30.834;2023-04-05T04:18:26;99741.26;;;7.15;73.89
50592;BME280;36548;50.506;30.834;2023-04-05T04:19:41;99747.40;;;7.02;73.19
50592;BME280;36548;50.506;30.834;2023-04-05T04:20:56;99747.95;;;7.23;73.56
50592;BME280;36548;50.506;30.834;2023-04-05T04:22:10;99755.92;;;7.08;72.59
50592;BME280;36548;50.506;30.834;2023-04-05T04:24:23;99754.89;;;6.95;72.39
50592;BME280;36548;50.506;30.834;2023-04-05T04:25:40;99740.56;;;7.12;73.10
50592;BME280;36548;50.506;30.834;2023-04-05T04:27:09;99744.45;;;7.06;73.09
50592;BME280;36548;50.506;30.834;2023-04-05T04:28:31;99737.48;;;7.04;72.45
50592;BME280;36548;50.506;30.834;2023-04-05T04:30:02;99744.52;;;7.21;73.34
50592;BME280;36548;50.506;30.834;2023-04-05T04:31:15;99738.21;;;7.22;72.07
50592;BME280;36548;50.506;30.834;2023-04-05T04:32:31;99738.53;;;7.31;71.86
50592;BME280;36548;50.506;30.834;2023-04-05T04:34:40;99749.45;;;7.12;71.34
50592;BME280;36548;50.506;30.834;2023-04-05T04:36:04;99734.70;;;7.21;72.09
50592;BME280;36548;50.506;30.834;2023-04-05T04:37:26;99739.28;;;7.19;72.40
50592;BME280;36548;50.506;30.834;2023-04-05T04:38:56;99733.36;;;6.98;71.69
50592;BME280;36548;50.506;30.834;2023-04-05T04:41:44;99743.70;;;7.04;72.36
50592;BME280;36548;50.506;30.834;2023-04-05T04:43:06;99738.77;;;7.12;72.57
50592;BME280;36548;50.506;30.834;2023-04-05T04:44:26;99736.11;;;7.12;72.36
50592;BME280;36548;50.506;30.834;2023-04-05T04:45:48;99731.02;;;7.08;72.11
50592;BME280;36548;50.506;30.834;2023-04-05T04:47:11;99728.58;;;6.89;72.07
50592;BME280;36548;50.506;30.834;2023-04-05T04:48:45;99730.64;;;6.68;73.05
50592;BME280;36548;50.506;30.834;2023-04-05T04:50:00;99737.28;;;6.76;73.25
50592;BME280;36548;50.506;30.834;2023-04-05T04:51:09;99736.34;;;6.61;73.53
50592;BME280;36548;50.506;30.834;2023-04-05T04:52:20;99728.94;;;6.51;73.80
50592;BME280;36548;50.506;30.834;2023-04-05T04:53:36;99726.25;;;6.82;74.24
50592;BME280;36548;50.506;30.834;2023-04-05T04:54:45;99735.58;;;6.59;73.62
50592;BME280;36548;50.506;30.834;2023-04-05T04:55:54;99728.27;;;6.47;74.37
50592;BME280;36548;50.506;30.834;2023-04-05T04:57:05;99735.13;;;6.35;74.55
50592;BME280;36548;50.506;30.834;2023-04-05T04:58:22;99728.17;;;6.48;74.75
50592;BME280;36548;50.506;30.834;2023-04-05T04:59:32;99733.74;;;6.44;74.79
50592;BME280;36548;50.506;30.834;2023-04-05T05:00:43;99735.91;;;6.53;75.04
50592;BME280;36548;50.506;30.834;2023-04-05T05:01:59;99723.94;;;6.60;74.66
50592;BME280;36548;50.506;30.834;2023-04-05T05:03:09;99729.20;;;6.46;75.09
50592;BME280;36548;50.506;30.834;2023-04-05T05:04:27;99730.30;;;6.58;74.91
50592;BME280;36548;50.506;30.834;2023-04-05T05:05:44;99728.16;;;6.64;75.47
50592;BME280;36548;50.506;30.834;2023-04-05T05:07:01;99737.38;;;6.75;74.55
50592;BME280;36548;50.506;30.834;2023-04-05T05:08:13;99739.27;;;6.57;74.17
50592;BME280;36548;50.506;30.834;2023-04-05T05:09:28;99737.38;;;6.75;74.44
50592;BME280;36548;50.506;30.834;2023-04-05T05:10:39;99744.52;;;6.58;74.17
50592;BME280;36548;50.506;30.834;2023-04-05T05:11:55;99730.98;;;6.77;74.61
50592;BME280;36548;50.506;30.834;2023-04-05T05:13:06;99732.39;;;6.53;74.25
50592;BME280;36548;50.506;30.834;2023-04-05T05:14:15;99741.33;;;6.52;74.51
50592;BME280;36548;50.506;30.834;2023-04-05T05:15:32;99733.23;;;6.53;74.92
50592;BME280;36548;50.506;30.834;2023-04-05T05:16:41;99733.59;;;6.47;75.16
50592;BME280;36548;50.506;30.834;2023-04-05T05:17:56;99730.41;;;6.72;75.41
50592;BME280;36548;50.506;30.834;2023-04-05T05:19:05;99739.87;;;6.46;74.76
50592;BME280;36548;50.506;30.834;2023-04-05T05:20:50;99735.56;;;6.43;74.81
50592;BME280;36548;50.506;30.834;2023-04-05T05:22:00;99737.70;;;6.21;75.61
50592;BME280;36548;50.506;30.834;2023-04-05T05:23:09;99736.50;;;6.42;75.74
50592;BME280;36548;50.506;30.834;2023-04-05T05:24:20;99738.48;;;6.55;75.94
50592;BME280;36548;50.506;30.834;2023-04-05T05:25:36;99729.28;;;6.76;75.73
50592;BME280;36548;50.506;30.834;2023-04-05T05:26:47;99739.75;;;6.31;74.98
50592;BME280;36548;50.506;30.834;2023-04-05T05:27:58;99731.44;;;6.38;75.56
50592;BME280;36548;50.506;30.834;2023-04-05T05:29:13;99727.48;;;6.29;75.79
50592;BME280;36548;50.506;30.834;2023-04-05T05:30:25;99726.63;;;6.44;76.31
50592;BME280;36548;50.506;30.834;2023-04-05T05:31:36;99723.09;;;6.60;76.34
50592;BME280;36548;50.506;30.834;2023-04-05T05:32:53;99722.12;;;6.77;75.73
50592;BME280;36548;50.506;30.834;2023-04-05T05:34:02;99721.28;;;6.76;75.87
50592;BME280;36548;50.506;30.834;2023-04-05T05:35:18;99722.55;;;6.85;75.19
50592;BME280;36548;50.506;30.834;2023-04-05T05:36:27;99734.61;;;6.76;75.07
50592;BME280;36548;50.506;30.834;2023-04-05T05:37:44;99717.11;;;7.03;75.40
50592;BME280;36548;50.506;30.834;2023-04-05T05:38:53;99732.23;;;7.02;75.57
50592;BME280;36548;50.506;30.834;2023-04-05T05:40:10;99728.76;;;7.16;74.36
50592;BME280;36548;50.506;30.834;2023-04-05T05:41:20;99727.97;;;6.83;73.87
50592;BME280;36548;50.506;30.834;2023-04-05T05:42:37;99722.53;;;7.01;74.04
50592;BME280;36548;50.506;30.834;2023-04-05T05:43:46;99734.77;;;6.89;73.90
50592;BME280;36548;50.506;30.834;2023-04-05T05:44:55;99733.59;;;6.79;73.62
50592;BME280;36548;50.506;30.834;2023-04-05T05:46:10;99732.08;;;7.05;74.63
50592;BME280;36548;50.506;30.834;2023-04-05T05:47:20;99742.16;;;7.00;74.54
50592;BME280;36548;50.506;30.834;2023-04-05T05:48:35;99726.23;;;6.98;73.66
50592;BME280;36548;50.506;30.834;2023-04-05T05:49:44;99736.81;;;7.00;74.31
50592;BME280;36548;50.506;30.834;2023-04-05T05:50:53;99743.33;;;7.10;74.87
50592;BME280;36548;50.506;30.834;2023-04-05T05:52:11;99735.83;;;7.17;73.45
50592;BME280;36548;50.506;30.834;2023-04-05T05:53:20;99733.25;;;7.15;74.00
50592;BME280;36548;50.506;30.834;2023-04-05T05:54:30;99732.46;;;7.13;73.48
50592;BME280;36548;50.506;30.834;2023-04-05T05:55:39;99729.98;;;7.10;73.21
50592;BME280;36548;50.506;30.834;2023-04-05T05:56:55;99729.17;;;7.24;73.42
50592;BME280;36548;50.506;30.834;2023-04-05T05:58:05;99733.97;;;7.03;72.89
50592;BME280;36548;50.506;30.834;2023-04-05T05:59:15;99727.55;;;6.91;73.44
50592;BME280;36548;50.506;30.834;2023-04-05T06:00:25;99727.36;;;6.94;73.38
50592;BME280;36548;50.506;30.834;2023-04-05T06:01:41;99720.91;;;6.82;73.93
50592;BME280;36548;50.506;30.834;2023-04-05T06:02:52;99730.83;;;6.80;74.21
50592;BME280;36548;50.506;30.834;2023-04-05T06:04:08;99725.16;;;6.71;74.60
50592;BME280;36548;50.506;30.834;2023-04-05T06:05:18;99721.03;;;6.65;74.98
50592;BME280;36548;50.506;30.834;2023-04-05T06:06:33;99721.38;;;6.75;75.36
50592;BME280;36548;50.506;30.834;2023-04-05T06:07:44;99722.16;;;6.61;75.01
50592;BME280;36548;50.506;30.834;2023-04-05T06:08:54;99727.40;;;6.62;75.26
50592;BME280;36548;50.506;30.834;2023-04-05T06:10:10;99722.16;;;6.61;75.52
50592;BME280;36548;50.506;30.834;2023-04-05T06:11:22;99731.87;;;6.46;75.54
50592;BME280;36548;50.506;30.834;2023-04-05T06:12:37;99727.46;;;6.77;75.77
50592;BME280;36548;50.506;30.834;2023-04-05T06:13:46;99734.61;;;6.60;75.70
50592;BME280;36548;50.506;30.834;2023-04-05T06:15:03;99721.98;;;6.64;75.77
50592;BME280;36548;50.506;30.834;2023-04-05T06:16:13;99721.45;;;6.57;75.82
50592;BME280;36548;50.506;30.834;2023-04-05T06:17:29;99721.30;;;6.44;76.26
50592;BME280;36548;50.506;30.834;2023-04-05T06:18:38;99729.18;;;6.30;76.85
50592;BME280;36548;50.506;30.834;2023-04-05T06:19:53;99720.00;;;6.52;76.72
50592;BME280;36548;50.506;30.834;2023-04-05T06:21:03;99722.91;;;6.31;76.47
50592;BME280;36548;50.506;30.834;2023-04-05T06:22:19;99719.58;;;6.59;76.84
50592;BME280;36548;50.506;30.834;2023-04-05T06:23:29;99720.09;;;6.50;76.52
50592;BME280;36548;50.506;30.834;2023-04-05T06:24:38;99725.75;;;6.44;76.36
50592;BME280;36548;50.506;30.834;2023-04-05T06:25:47;99723.60;;;6.51;76.41
50592;BME280;36548;50.506;30.834;2023-04-05T06:26:57;99717.52;;;6.48;76.45
50592;BME280;36548;50.506;30.834;2023-04-05T06:28:13;99706.06;;;6.62;76.76
50592;BME280;36548;50.506;30.834;2023-04-05T06:29:22;99717.42;;;6.50;76.56
50592;BME280;36548;50.506;30.834;2023-04-05T06:30:32;99707.71;;;6.33;77.57
50592;BME280;36548;50.506;30.834;2023-04-05T06:31:42;99696.09;;;6.50;77.54
50592;BME280;36548;50.506;30.834;2023-04-05T06:32:59;99695.30;;;6.64;77.18
50592;BME280;36548;50.506;30.834;2023-04-05T06:34:09;99700.55;;;6.49;77.29
50592;BME280;36548;50.506;30.834;2023-04-05T06:35:24;99693.33;;;6.52;77.45
50592;BME280;36548;50.506;30.834;2023-04-05T06:36:33;99703.66;;;6.42;77.99
50592;BME280;36548;50.506;30.834;2023-04-05T06:37:49;99704.08;;;6.18;78.71
50592;BME280;36548;50.506;30.834;2023-04-05T06:38:59;99700.04;;;6.11;79.68
50592;BME280;36548;50.506;30.834;2023-04-05T06:40:14;99697.48;;;5.92;79.88
50592;BME280;36548;50.506;30.834;2023-04-05T06:41:25;99703.20;;;6.02;80.37
50592;BME280;36548;50.506;30.834;2023-04-05T06:42:42;99697.81;;;6.19;80.65
50592;BME280;36548;50.506;30.834;2023-04-05T06:43:52;99704.26;;;6.15;80.15
50592;BME280;36548;50.506;30.834;2023-04-05T06:45:08;99697.98;;;6.32;80.25